createdAt,value
2022-09-11T00:01:11.660Z,79.06
2022-09-11T00:03:39.505Z,79.23
2022-09-11T00:06:10.805Z,79.11
2022-09-11T00:08:39.252Z,79.15
2022-09-11T00:11:10.055Z,79.62
2022-09-11T00:13:38.526Z,79.21
2022-09-11T00:16:08.314Z,79.59
2022-09-11T00:18:38.217Z,79.01
2022-09-11T00:21:06.205Z,78.86
2022-09-11T00:23:33.370Z,79.17
2022-09-11T00:26:06.535Z,79.47
2022-09-11T00:28:33.668Z,79.13
2022-09-11T00:31:05.787Z,79.48
2022-09-11T00:33:33.472Z,78.99
2022-09-11T00:36:03.915Z,79.27
2022-09-11T00:38:33.269Z,79.24
2022-09-11T00:41:02.008Z,79.21
2022-09-11T00:43:30.553Z,79.43
2022-09-11T00:46:05.755Z,80.02
2022-09-11T00:48:35.874Z,79.83
2022-09-11T00:51:04.090Z,79.50
2022-09-11T00:53:34.956Z,79.48
2022-09-11T00:56:05.828Z,80.11
2022-09-11T00:58:38.486Z,80.55
2022-09-11T01:01:05.393Z,80.30
2022-09-11T01:03:32.448Z,79.88
2022-09-11T01:06:00.517Z,79.78
2022-09-11T01:08:27.678Z,80.08
2022-09-11T01:11:03.808Z,81.16
2022-09-11T01:13:55.020Z,80.28
2022-09-11T01:16:41.320Z,80.99
2022-09-11T01:19:46.820Z,80.81
2022-09-11T01:22:23.015Z,80.42
2022-09-11T01:25:10.749Z,81.40
2022-09-11T01:27:44.796Z,80.59
2022-09-11T01:30:16.500Z,81.20
2022-09-11T01:33:09.514Z,81.59
2022-09-11T01:35:44.239Z,81.88
2022-09-11T01:38:20.892Z,82.02
2022-09-11T01:40:54.410Z,81.31
2022-09-11T01:43:30.570Z,81.59
2022-09-11T01:46:01.501Z,80.74
2022-09-11T01:48:41.657Z,81.17
2022-09-11T01:51:12.927Z,80.65
2022-09-11T01:53:45.879Z,80.38
2022-09-11T01:56:26.335Z,81.22
2022-09-11T01:58:58.774Z,81.06
2022-09-11T02:01:33.041Z,81.56
2022-09-11T02:04:10.155Z,81.58
2022-09-11T02:06:46.401Z,81.23
2022-09-11T02:09:16.917Z,81.10
2022-09-11T02:11:46.983Z,80.97
2022-09-11T02:14:26.083Z,81.19
2022-09-11T02:17:01.234Z,80.61
2022-09-11T02:19:29.559Z,80.72
2022-09-11T02:21:58.478Z,80.79
2022-09-11T02:24:25.982Z,80.49
2022-09-11T02:26:58.363Z,81.33
2022-09-11T02:29:25.156Z,80.66
2022-09-11T02:31:52.477Z,80.28
2022-09-11T02:34:27.165Z,81.37
2022-09-11T02:37:14.856Z,81.91
2022-09-11T02:40:00.585Z,81.78
2022-09-11T02:42:56.877Z,80.96
2022-09-11T02:45:48.256Z,81.79
2022-09-11T02:48:46.287Z,82.00
2022-09-11T02:51:25.963Z,82.20
2022-09-11T02:54:26.265Z,81.52
2022-09-11T02:57:01.415Z,80.62
2022-09-11T02:59:35.050Z,81.43
2022-09-11T03:02:02.317Z,80.94
2022-09-11T03:04:29.584Z,81.03
2022-09-11T03:06:59.406Z,80.85
2022-09-11T03:09:26.136Z,80.58
2022-09-11T03:11:53.048Z,81.25
2022-09-11T03:14:19.530Z,81.06
2022-09-11T03:16:46.089Z,81.57
2022-09-11T03:19:13.115Z,81.28
2022-09-11T03:21:42.912Z,81.22
2022-09-11T03:24:10.159Z,81.12
2022-09-11T03:26:37.446Z,81.45
2022-09-11T03:29:04.510Z,81.83
2022-09-11T03:31:31.099Z,81.71
2022-09-11T03:33:57.796Z,81.97
2022-09-11T03:36:24.305Z,82.03
2022-09-11T03:38:51.179Z,82.33
2022-09-11T03:41:17.840Z,81.84
2022-09-11T03:43:44.499Z,81.50
2022-09-11T03:46:11.208Z,81.74
2022-09-11T03:48:37.937Z,81.25
2022-09-11T03:51:08.331Z,81.72
2022-09-11T03:53:35.555Z,81.49
2022-09-11T03:56:04.164Z,81.71
2022-09-11T03:58:30.760Z,81.46
2022-09-11T04:00:57.278Z,81.53
2022-09-11T04:03:23.975Z,81.64
2022-09-11T04:06:03.406Z,82.11
2022-09-11T04:08:33.955Z,81.59
2022-09-11T04:11:02.985Z,81.24
2022-09-11T04:13:35.113Z,81.71
2022-09-11T04:16:05.237Z,80.81
2022-09-11T04:18:35.025Z,81.11
2022-09-11T04:21:10.671Z,81.61
2022-09-11T04:23:38.569Z,81.31
2022-09-11T04:26:15.771Z,82.05
2022-09-11T04:28:43.415Z,81.91
2022-09-11T04:31:11.786Z,80.89
2022-09-11T04:33:39.881Z,81.14
2022-09-11T04:36:08.216Z,81.42
2022-09-11T04:38:35.125Z,81.59
2022-09-11T04:41:06.385Z,81.63
2022-09-11T04:43:36.241Z,81.10
2022-09-11T04:46:06.812Z,81.60
2022-09-11T04:48:34.072Z,81.28
2022-09-11T04:51:07.178Z,81.58
2022-09-11T04:53:34.841Z,80.95
2022-09-11T04:56:07.354Z,81.13
2022-09-11T04:58:34.999Z,81.82
2022-09-11T05:01:07.943Z,81.21
2022-09-11T05:03:34.501Z,82.02
2022-09-11T05:06:06.897Z,81.44
2022-09-11T05:18:09.332Z,82.70
2022-09-11T05:20:35.844Z,82.31
2022-09-11T05:23:03.314Z,81.85
2022-09-11T05:25:32.185Z,82.66
2022-09-11T05:27:58.731Z,82.36
2022-09-11T05:30:25.366Z,82.40
2022-09-11T05:32:55.199Z,83.24
2022-09-11T05:35:26.472Z,82.77
2022-09-11T05:37:55.743Z,83.13
2022-09-11T05:40:22.341Z,82.63
2022-09-11T05:42:48.852Z,82.89
2022-09-11T05:45:15.451Z,83.05
2022-09-11T05:47:42.509Z,82.71
2022-09-11T05:50:09.250Z,83.37
2022-09-11T05:52:35.791Z,83.31
2022-09-11T05:55:02.654Z,83.95
2022-09-11T05:57:29.121Z,83.70
2022-09-11T05:59:55.640Z,83.81
2022-09-11T06:02:22.453Z,84.24
2022-09-11T06:04:49.044Z,83.91
2022-09-11T06:07:15.675Z,84.43
2022-09-11T06:09:42.284Z,84.03
2022-09-11T06:12:10.350Z,83.68
2022-09-11T06:14:36.813Z,84.20
2022-09-11T06:20:20.190Z,84.54
2022-09-11T06:22:46.620Z,84.88
2022-09-11T06:25:13.187Z,84.79
2022-09-11T06:27:39.854Z,85.15
2022-09-11T06:30:07.058Z,85.46
2022-09-11T06:32:34.712Z,85.66
2022-09-11T06:35:01.154Z,85.42
2022-09-11T06:37:28.040Z,85.60
2022-09-11T06:39:54.677Z,85.72
2022-09-11T06:42:21.159Z,85.39
2022-09-11T06:44:50.737Z,85.76
2022-09-11T06:47:17.581Z,85.57
2022-09-11T06:49:44.112Z,85.88
2022-09-11T06:52:15.596Z,85.80
2022-09-11T06:54:42.318Z,86.26
2022-09-11T06:57:08.990Z,86.01
2022-09-11T06:59:35.555Z,86.29
2022-09-11T07:02:02.195Z,86.69
2022-09-11T07:04:28.847Z,86.89
2022-09-11T07:06:55.468Z,87.05
2022-09-11T07:09:21.968Z,87.20
2022-09-11T07:11:48.582Z,87.62
2022-09-11T07:14:15.168Z,87.57
2022-09-11T07:16:42.136Z,87.39
2022-09-11T07:21:44.107Z,87.82
2022-09-11T07:24:10.762Z,87.94
2022-09-11T07:26:37.207Z,87.72
2022-09-11T07:29:03.856Z,87.45
2022-09-11T07:31:34.795Z,87.90
2022-09-11T07:34:06.182Z,88.02
2022-09-11T07:36:34.730Z,88.08
2022-09-11T07:39:02.029Z,88.90
2022-09-11T07:41:28.645Z,88.28
2022-09-11T07:44:00.275Z,88.63
2022-09-11T07:46:27.209Z,88.48
2022-09-11T07:48:55.401Z,88.72
2022-09-11T07:51:21.968Z,88.71
2022-09-11T07:53:52.808Z,88.85
2022-09-11T07:56:23.599Z,88.65
2022-09-11T07:58:52.077Z,88.50
2022-09-11T08:01:21.120Z,88.98
2022-09-11T08:03:49.395Z,88.54
2022-09-11T08:06:22.160Z,88.84
2022-09-11T08:08:56.351Z,88.79
2022-09-11T08:11:23.764Z,89.04
2022-09-11T08:13:51.965Z,88.81
2022-09-11T08:16:19.645Z,88.89
2022-09-11T08:18:46.466Z,88.85
2022-09-11T08:24:30.996Z,88.56
2022-09-11T08:26:58.859Z,88.82
2022-09-11T08:29:25.427Z,88.64
2022-09-11T08:31:52.136Z,88.47
2022-09-11T08:34:21.942Z,88.77
2022-09-11T08:36:50.563Z,88.75
2022-09-11T08:39:17.099Z,88.86
2022-09-11T08:41:53.685Z,88.64
2022-09-11T08:44:31.229Z,89.09
2022-09-11T08:47:06.865Z,88.82
2022-09-11T08:49:43.191Z,88.74
2022-09-11T08:52:14.016Z,88.68
2022-09-11T08:54:42.388Z,88.53
2022-09-11T08:57:34.032Z,89.00
2022-09-11T09:00:12.999Z,88.43
2022-09-11T09:02:57.995Z,86.80
2022-09-11T09:05:55.242Z,83.02
2022-09-11T09:08:45.197Z,82.31
2022-09-11T09:11:22.462Z,84.66
2022-09-11T09:14:29.181Z,83.47
2022-09-11T09:17:03.203Z,82.73
2022-09-11T09:19:36.405Z,83.21
2022-09-11T09:22:02.870Z,83.89
2022-09-11T09:32:24.148Z,83.31
2022-09-11T09:34:55.517Z,83.38
2022-09-11T09:37:24.018Z,84.25
2022-09-11T09:39:51.370Z,83.20
2022-09-11T09:42:58.593Z,81.58
2022-09-11T09:45:38.294Z,81.72
2022-09-11T09:48:07.766Z,82.83
2022-09-11T09:50:39.086Z,82.47
2022-09-11T09:53:32.488Z,82.10
2022-09-11T09:56:00.658Z,81.41
2022-09-11T09:58:32.590Z,81.08
2022-09-11T10:00:59.452Z,80.30
2022-09-11T10:03:26.648Z,80.23
2022-09-11T10:05:54.815Z,80.74
2022-09-11T10:08:36.876Z,79.92
2022-09-11T10:11:06.193Z,80.46
2022-09-11T10:13:41.668Z,81.55
2022-09-11T10:16:22.651Z,79.90
2022-09-11T10:18:49.709Z,81.30
2022-09-11T10:21:21.506Z,79.20
2022-09-11T10:24:00.334Z,76.07
2022-09-11T10:26:29.829Z,80.50
2022-09-11T10:29:04.947Z,80.17
2022-09-11T10:34:48.645Z,79.74
2022-09-11T10:37:15.064Z,79.41
2022-09-11T10:39:46.430Z,79.48
2022-09-11T10:42:18.198Z,78.67
2022-09-11T10:44:47.178Z,77.88
2022-09-11T10:47:23.533Z,78.38
2022-09-11T10:49:50.031Z,76.12
2022-09-11T10:52:20.628Z,74.94
2022-09-11T10:55:05.924Z,76.03
2022-09-11T10:57:33.352Z,76.00
2022-09-11T11:00:18.164Z,70.26
2022-09-11T11:02:49.966Z,73.10
2022-09-11T11:05:30.345Z,72.77
2022-09-11T11:08:22.592Z,73.65
2022-09-11T11:11:19.847Z,69.47
2022-09-11T11:14:15.597Z,69.95
2022-09-11T11:17:03.939Z,73.75
2022-09-11T11:19:36.928Z,73.76
2022-09-11T11:22:45.548Z,71.30
2022-09-11T11:25:29.062Z,67.04
2022-09-11T11:28:04.591Z,66.03
2022-09-11T11:30:41.520Z,66.32
2022-09-11T11:33:36.219Z,69.53
2022-09-11T11:36:11.456Z,69.22
2022-09-11T11:39:00.614Z,64.63
2022-09-11T11:41:44.565Z,67.25
2022-09-11T11:44:17.057Z,67.08
2022-09-11T11:46:52.327Z,68.19
2022-09-11T11:49:31.568Z,67.12
2022-09-11T11:52:13.064Z,65.84
2022-09-11T11:54:47.605Z,66.75
2022-09-11T11:57:22.449Z,66.89
2022-09-11T12:00:11.095Z,67.14
2022-09-11T12:03:07.880Z,66.23
2022-09-11T12:05:35.138Z,65.74
2022-09-11T12:08:02.299Z,66.20
2022-09-11T12:10:31.130Z,65.33
2022-09-11T12:13:05.201Z,65.37
2022-09-11T12:15:34.597Z,66.08
2022-09-11T12:18:24.621Z,65.72
2022-09-11T12:20:51.572Z,65.59
2022-09-11T12:23:30.204Z,64.98
2022-09-11T12:26:25.775Z,65.02
2022-09-11T12:29:14.558Z,64.67
2022-09-11T12:31:50.177Z,64.45
2022-09-11T12:34:19.629Z,64.50
2022-09-11T12:37:00.769Z,64.31
2022-09-11T12:39:35.492Z,65.27
2022-09-11T12:42:23.636Z,65.52
2022-09-11T12:44:49.977Z,64.66
2022-09-11T12:47:24.554Z,63.91
2022-09-11T12:50:01.362Z,64.76
2022-09-11T12:52:34.212Z,64.92
2022-09-11T12:55:06.743Z,64.80
2022-09-11T12:57:36.347Z,65.31
2022-09-11T13:00:09.258Z,65.18
2022-09-11T13:02:39.511Z,64.95
2022-09-11T13:05:23.530Z,64.83
2022-09-11T13:07:56.788Z,64.83
2022-09-11T13:10:38.987Z,64.68
2022-09-11T13:13:26.854Z,64.94
2022-09-11T13:15:59.045Z,64.12
2022-09-11T13:18:34.421Z,64.27
2022-09-11T13:21:11.374Z,63.50
2022-09-11T13:34:12.488Z,63.33
2022-09-11T13:36:40.550Z,63.93
2022-09-11T13:39:08.171Z,63.85
2022-09-11T13:41:43.702Z,63.43
2022-09-11T13:44:36.656Z,63.68
2022-09-11T13:47:06.500Z,63.39
2022-09-11T13:49:39.100Z,61.87
2022-09-11T13:52:06.713Z,63.16
2022-09-11T13:54:38.497Z,62.51
2022-09-11T13:57:13.225Z,62.86
2022-09-11T13:59:47.170Z,62.54
2022-09-11T14:02:34.725Z,62.03
2022-09-11T14:05:10.572Z,60.61
2022-09-11T14:07:56.950Z,59.51
2022-09-11T14:10:42.982Z,57.80
2022-09-11T14:13:12.570Z,60.18
2022-09-11T14:15:52.116Z,59.96
2022-09-11T14:18:43.488Z,59.67
2022-09-11T14:21:16.065Z,59.96
2022-09-11T14:23:51.638Z,58.98
2022-09-11T14:26:21.628Z,59.77
2022-09-11T14:28:59.726Z,60.03
2022-09-11T14:31:40.700Z,58.62
2022-09-11T14:34:27.313Z,58.40
2022-09-11T14:36:59.044Z,59.86
2022-09-11T14:39:47.974Z,58.41
2022-09-11T14:42:23.395Z,58.49
2022-09-11T14:44:50.725Z,58.99
2022-09-11T14:47:19.546Z,59.52
2022-09-11T14:49:46.936Z,59.59
2022-09-11T14:52:15.699Z,59.34
2022-09-11T14:54:42.786Z,59.00
2022-09-11T14:57:19.811Z,58.60
2022-09-11T14:59:47.268Z,59.60
2022-09-11T15:02:16.519Z,58.11
2022-09-11T15:04:43.570Z,58.78
2022-09-11T15:07:11.981Z,58.34
2022-09-11T15:09:38.543Z,58.14
2022-09-11T15:12:06.022Z,57.69
2022-09-11T15:14:54.867Z,58.36
2022-09-11T15:17:20.249Z,57.79
2022-09-11T15:19:47.799Z,58.14
2022-09-11T15:22:14.277Z,57.69
2022-09-11T15:24:42.092Z,57.36
2022-09-11T15:27:09.985Z,57.73
2022-09-11T15:29:39.816Z,57.39
2022-09-11T15:32:07.572Z,57.01
2022-09-11T15:34:34.571Z,56.53
2022-09-11T15:37:02.204Z,55.98
2022-09-11T15:39:29.091Z,56.66
2022-09-11T15:41:59.299Z,56.27
2022-09-11T15:44:28.734Z,56.42
2022-09-11T15:46:57.641Z,56.36
2022-09-11T15:49:25.198Z,56.11
2022-09-11T15:51:53.942Z,56.47
2022-09-11T15:54:23.213Z,56.40
2022-09-11T15:56:50.726Z,55.49
2022-09-11T15:59:17.351Z,55.92
2022-09-11T16:01:44.835Z,55.87
2022-09-11T16:04:18.900Z,56.04
2022-09-11T16:06:48.059Z,56.22
2022-09-11T16:09:19.095Z,55.45
2022-09-11T16:11:47.868Z,55.93
2022-09-11T16:14:18.664Z,55.37
2022-09-11T16:16:47.112Z,55.92
2022-09-11T16:19:17.009Z,55.40
2022-09-11T16:21:43.549Z,55.78
2022-09-11T16:24:10.905Z,55.66
2022-09-11T16:26:38.700Z,55.77
2022-09-11T16:29:09.795Z,55.70
2022-09-11T16:31:36.306Z,55.79
2022-09-11T16:34:04.555Z,55.82
2022-09-11T16:36:38.297Z,55.98
2022-09-11T16:39:07.107Z,55.99
2022-09-11T16:41:33.688Z,55.99
2022-09-11T16:44:00.452Z,56.23
2022-09-11T16:46:27.487Z,56.20
2022-09-11T16:48:59.847Z,56.37
2022-09-11T16:51:28.366Z,56.49
2022-09-11T16:53:55.065Z,56.71
2022-09-11T16:56:23.216Z,56.67
2022-09-11T16:58:50.244Z,56.73
2022-09-11T17:01:19.533Z,56.56
2022-09-11T17:03:49.207Z,56.42
2022-09-11T17:06:16.825Z,56.69
2022-09-11T17:08:44.658Z,56.52
2022-09-11T17:11:13.950Z,56.97
2022-09-11T17:13:41.327Z,57.00
2022-09-11T17:16:16.535Z,56.98
2022-09-11T17:18:49.086Z,57.09
2022-09-11T17:21:16.530Z,57.25
2022-09-11T17:23:43.439Z,57.28
2022-09-11T17:26:12.613Z,57.48
2022-09-11T17:28:40.288Z,57.67
2022-09-11T17:31:09.311Z,57.84
2022-09-11T17:33:38.740Z,58.07
2022-09-11T17:36:06.551Z,58.13
2022-09-11T17:38:33.850Z,58.26
2022-09-11T17:41:04.118Z,58.74
2022-09-11T17:47:10.234Z,59.96
2022-09-11T17:49:36.931Z,58.89
2022-09-11T17:52:03.771Z,58.84
2022-09-11T17:54:30.331Z,59.02
2022-09-11T17:56:58.286Z,59.14
2022-09-11T17:59:24.860Z,59.25
2022-09-11T18:01:51.921Z,59.37
2022-09-11T18:04:18.489Z,59.54
2022-09-11T18:06:45.287Z,59.60
2022-09-11T18:09:17.828Z,59.83
2022-09-11T18:11:47.181Z,59.54
2022-09-11T18:14:16.657Z,60.29
2022-09-11T18:16:45.057Z,60.11
2022-09-11T18:19:12.238Z,59.90
2022-09-11T18:21:39.437Z,60.04
2022-09-11T18:24:07.057Z,60.15
2022-09-11T18:26:39.482Z,60.41
2022-09-11T18:29:09.986Z,60.63
2022-09-11T18:31:44.246Z,61.17
2022-09-11T18:34:13.387Z,60.84
2022-09-11T18:36:40.007Z,60.58
2022-09-11T18:39:06.607Z,60.74
2022-09-11T18:41:38.410Z,60.98
2022-09-11T18:44:10.429Z,61.39
2022-09-11T18:46:37.515Z,61.33
2022-09-11T18:49:04.664Z,61.68
2022-09-11T18:51:31.126Z,62.00
2022-09-11T18:53:57.599Z,62.26
2022-09-11T18:56:28.337Z,62.68
2022-09-11T18:58:56.137Z,63.01
2022-09-11T19:01:25.821Z,63.51
2022-09-11T19:03:53.633Z,63.44
2022-09-11T19:06:22.637Z,63.27
2022-09-11T19:08:49.674Z,63.63
2022-09-11T19:11:19.158Z,63.66
2022-09-11T19:13:46.280Z,63.78
2022-09-11T19:16:13.154Z,63.94
2022-09-11T19:18:39.632Z,63.85
2022-09-11T19:21:15.900Z,64.60
2022-09-11T19:23:44.569Z,63.58
2022-09-11T19:26:14.186Z,63.51
2022-09-11T19:28:42.602Z,63.85
2022-09-11T19:31:12.134Z,63.76
2022-09-11T19:33:39.767Z,63.94
2022-09-11T19:36:17.558Z,64.12
2022-09-11T19:38:45.963Z,64.18
2022-09-11T19:41:15.121Z,64.54
2022-09-11T19:43:43.723Z,64.32
2022-09-11T19:46:26.453Z,64.60
2022-09-11T19:48:57.045Z,65.10
2022-09-11T19:51:29.550Z,66.16
2022-09-11T19:53:59.847Z,65.41
2022-09-11T19:56:30.187Z,65.61
2022-09-11T19:58:56.945Z,65.44
2022-09-11T20:01:25.388Z,65.90
2022-09-11T20:03:53.874Z,65.68
2022-09-11T20:06:23.022Z,65.62
2022-09-11T20:09:03.111Z,66.03
2022-09-11T20:11:39.609Z,65.58
2022-09-11T20:14:06.584Z,65.88
2022-09-11T20:16:33.233Z,65.83
2022-09-11T20:19:09.315Z,65.86
2022-09-11T20:21:36.215Z,65.84
2022-09-11T20:24:04.846Z,66.15
2022-09-11T20:26:32.491Z,66.16
2022-09-11T20:29:02.274Z,66.34
2022-09-11T20:31:32.176Z,66.31
2022-09-11T20:34:00.674Z,66.50
2022-09-11T20:36:30.052Z,66.65
2022-09-11T20:38:58.327Z,66.92
2022-09-11T20:41:29.949Z,67.15
2022-09-11T20:43:58.150Z,67.60
2022-09-11T20:46:25.774Z,67.73
2022-09-11T20:48:53.300Z,67.53
2022-09-11T20:51:21.575Z,67.93
2022-09-11T20:53:49.004Z,68.25
2022-09-11T20:56:20.439Z,68.79
2022-09-11T20:58:47.448Z,68.13
2022-09-11T21:01:18.018Z,68.45
2022-09-11T21:03:53.896Z,69.13
2022-09-11T21:06:25.842Z,68.56
2022-09-11T21:09:05.890Z,69.08
2022-09-11T21:11:33.232Z,69.37
2022-09-11T21:14:00.548Z,69.66
2022-09-11T21:16:27.764Z,69.85
2022-09-11T21:18:58.024Z,69.92
2022-09-11T21:21:26.453Z,69.42
2022-09-11T21:23:58.949Z,70.03
2022-09-11T21:26:28.726Z,69.71
2022-09-11T21:29:00.233Z,70.83
2022-09-11T21:31:27.167Z,69.64
2022-09-11T21:33:54.326Z,69.55
2022-09-11T21:36:21.068Z,69.69
2022-09-11T21:38:47.630Z,69.28
2022-09-11T21:41:15.084Z,70.10
2022-09-11T21:43:41.607Z,70.25
2022-09-11T21:46:09.165Z,70.28
2022-09-11T21:48:38.617Z,70.88
2022-09-11T21:51:14.191Z,70.37
2022-09-11T21:53:42.932Z,70.45
2022-09-11T21:56:21.840Z,71.58
2022-09-11T21:58:50.765Z,70.34
2022-09-11T22:01:18.731Z,70.59
2022-09-11T22:03:45.557Z,70.72
2022-09-11T22:06:13.290Z,70.78
2022-09-11T22:08:43.048Z,70.91
2022-09-11T22:11:11.349Z,70.89
2022-09-11T22:13:38.722Z,71.20
2022-09-11T22:16:09.500Z,70.85
2022-09-11T22:18:40.764Z,71.70
2022-09-11T22:21:08.697Z,70.78
2022-09-11T22:23:35.416Z,70.93
2022-09-11T22:26:06.414Z,70.88
2022-09-11T22:28:33.117Z,70.85
2022-09-11T22:30:59.827Z,70.95
2022-09-11T22:33:26.485Z,71.19
2022-09-11T22:35:53.176Z,71.52
2022-09-11T22:38:19.639Z,71.88
2022-09-11T22:40:53.122Z,73.31
2022-09-11T22:43:19.779Z,72.24
2022-09-11T22:45:51.190Z,72.79
2022-09-11T22:48:17.949Z,72.25
2022-09-11T22:50:44.455Z,72.66
2022-09-11T22:53:11.037Z,72.30
2022-09-11T22:55:37.968Z,72.61
2022-09-11T22:58:04.489Z,72.37
2022-09-11T23:00:31.017Z,72.27
2022-09-11T23:02:58.767Z,72.11
2022-09-11T23:05:44.143Z,72.37
2022-09-11T23:08:10.777Z,72.15
2022-09-11T23:10:41.664Z,73.12
2022-09-11T23:13:08.292Z,72.08
2022-09-11T23:15:34.736Z,72.11
2022-09-11T23:18:02.061Z,72.21
2022-09-11T23:20:32.027Z,73.02
2022-09-11T23:22:59.039Z,72.69
2022-09-11T23:25:25.605Z,72.90
2022-09-11T23:27:53.609Z,72.67
2022-09-11T23:30:20.795Z,72.77
2022-09-11T23:32:47.252Z,73.01
2022-09-11T23:35:13.835Z,73.14
2022-09-11T23:37:44.819Z,73.41
2022-09-11T23:40:11.924Z,73.18
2022-09-11T23:42:38.620Z,73.23
2022-09-11T23:45:07.505Z,72.76
2022-09-11T23:47:36.646Z,72.86
2022-09-11T23:50:03.376Z,73.11
2022-09-11T23:52:30.047Z,72.84
2022-09-11T23:54:56.626Z,73.06
2022-09-11T23:57:23.506Z,72.92
2022-09-11T23:59:50.092Z,73.17
